sensor_id;sensor_type;location;lat;lon;timestamp;P1;durP1;ratioP1;P2;durP2;ratioP2
44358;SDS011;30077;52.474;13.326;2023-07-08T00:03:53;13.30;;;8.25;;
44358;SDS011;30077;52.474;13.326;2023-07-08T00:08:54;11.13;;;8.07;;
44358;SDS011;30077;52.474;13.326;2023-07-08T00:13:55;11.57;;;7.97;;
44358;SDS011;30077;52.474;13.326;2023-07-08T00:18:56;10.98;;;7.55;;
44358;SDS011;30077;52.474;13.326;2023-07-08T00:23:56;10.27;;;6.90;;
44358;SDS011;30077;52.474;13.326;2023-07-08T00:28:57;14.98;;;8.27;;
44358;SDS011;30077;52.474;13.326;2023-07-08T00:33:59;11.20;;;7.43;;
44358;SDS011;30077;52.474;13.326;2023-07-08T00:39:03;12.73;;;7.38;;
44358;SDS011;30077;52.474;13.326;2023-07-08T00:44:14;9.35;;;6.75;;
44358;SDS011;30077;52.474;13.326;2023-07-08T00:49:23;11.07;;;6.97;;
44358;SDS011;30077;52.474;13.326;2023-07-08T00:54:38;8.30;;;6.80;;
44358;SDS011;30077;52.474;13.326;2023-07-08T00:59:40;9.40;;;7.00;;
44358;SDS011;30077;52.474;13.326;2023-07-08T01:04:50;8.73;;;7.13;;
44358;SDS011;30077;52.474;13.326;2023-07-08T01:10:06;8.02;;;6.38;;
44358;SDS011;30077;52.474;13.326;2023-07-08T01:15:12;12.05;;;6.78;;
44358;SDS011;30077;52.474;13.326;2023-07-08T01:20:14;7.95;;;6.13;;
44358;SDS011;30077;52.474;13.326;2023-07-08T01:25:15;8.48;;;6.43;;
44358;SDS011;30077;52.474;13.326;2023-07-08T01:30:17;7.55;;;6.30;;
44358;SDS011;30077;52.474;13.326;2023-07-08T01:35:17;7.43;;;6.20;;
44358;SDS011;30077;52.474;13.326;2023-07-08T01:40:24;8.57;;;6.23;;
44358;SDS011;30077;52.474;13.326;2023-07-08T01:45:36;10.63;;;6.45;;
44358;SDS011;30077;52.474;13.326;2023-07-08T01:51:03;8.40;;;6.28;;
44358;SDS011;30077;52.474;13.326;2023-07-08T01:56:05;8.25;;;6.60;;
44358;SDS011;30077;52.474;13.326;2023-07-08T02:01:12;7.88;;;6.43;;
44358;SDS011;30077;52.474;13.326;2023-07-08T02:06:12;8.95;;;6.10;;
44358;SDS011;30077;52.474;13.326;2023-07-08T02:11:13;6.32;;;4.90;;
44358;SDS011;30077;52.474;13.326;2023-07-08T02:16:14;8.20;;;6.15;;
44358;SDS011;30077;52.474;13.326;2023-07-08T02:21:15;7.45;;;6.38;;
44358;SDS011;30077;52.474;13.326;2023-07-08T02:26:17;7.78;;;5.78;;
44358;SDS011;30077;52.474;13.326;2023-07-08T02:31:18;10.48;;;5.82;;
44358;SDS011;30077;52.474;13.326;2023-07-08T02:36:24;12.85;;;8.35;;
44358;SDS011;30077;52.474;13.326;2023-07-08T02:41:26;8.73;;;6.43;;
44358;SDS011;30077;52.474;13.326;2023-07-08T02:46:27;7.63;;;6.53;;
44358;SDS011;30077;52.474;13.326;2023-07-08T02:51:28;10.13;;;6.83;;
44358;SDS011;30077;52.474;13.326;2023-07-08T02:56:30;9.47;;;6.67;;
44358;SDS011;30077;52.474;13.326;2023-07-08T03:01:31;12.15;;;6.95;;
44358;SDS011;30077;52.474;13.326;2023-07-08T03:11:35;8.40;;;6.30;;
44358;SDS011;30077;52.474;13.326;2023-07-08T03:16:37;9.85;;;6.15;;
44358;SDS011;30077;52.474;13.326;2023-07-08T03:21:40;9.18;;;6.20;;
44358;SDS011;30077;52.474;13.326;2023-07-08T03:26:41;7.10;;;6.07;;
44358;SDS011;30077;52.474;13.326;2023-07-08T03:31:43;6.93;;;6.22;;
44358;SDS011;30077;52.474;13.326;2023-07-08T03:36:48;6.60;;;5.73;;
44358;SDS011;30077;52.474;13.326;2023-07-08T03:41:50;8.88;;;5.70;;
44358;SDS011;30077;52.474;13.326;2023-07-08T03:46:51;7.45;;;6.13;;
44358;SDS011;30077;52.474;13.326;2023-07-08T03:51:52;6.35;;;5.60;;
44358;SDS011;30077;52.474;13.326;2023-07-08T03:56:54;10.20;;;6.27;;
44358;SDS011;30077;52.474;13.326;2023-07-08T04:01:55;13.52;;;6.28;;
44358;SDS011;30077;52.474;13.326;2023-07-08T04:06:56;7.68;;;5.43;;
44358;SDS011;30077;52.474;13.326;2023-07-08T04:11:56;6.85;;;5.53;;
44358;SDS011;30077;52.474;13.326;2023-07-08T04:16:58;6.40;;;5.30;;
44358;SDS011;30077;52.474;13.326;2023-07-08T04:22:00;7.55;;;5.38;;
44358;SDS011;30077;52.474;13.326;2023-07-08T04:27:02;5.80;;;5.03;;
44358;SDS011;30077;52.474;13.326;2023-07-08T04:32:03;6.53;;;5.72;;
44358;SDS011;30077;52.474;13.326;2023-07-08T04:37:04;8.93;;;5.28;;
44358;SDS011;30077;52.474;13.326;2023-07-08T04:42:05;8.55;;;4.97;;
44358;SDS011;30077;52.474;13.326;2023-07-08T04:47:06;7.78;;;5.18;;
44358;SDS011;30077;52.474;13.326;2023-07-08T04:52:09;6.32;;;5.30;;
44358;SDS011;30077;52.474;13.326;2023-07-08T04:57:09;12.38;;;5.43;;
44358;SDS011;30077;52.474;13.326;2023-07-08T05:02:10;5.60;;;4.93;;
44358;SDS011;30077;52.474;13.326;2023-07-08T05:07:11;6.50;;;5.35;;
44358;SDS011;30077;52.474;13.326;2023-07-08T05:12:11;6.45;;;5.13;;
44358;SDS011;30077;52.474;13.326;2023-07-08T05:17:12;5.20;;;4.55;;
44358;SDS011;30077;52.474;13.326;2023-07-08T05:22:13;9.20;;;5.43;;
44358;SDS011;30077;52.474;13.326;2023-07-08T05:27:13;10.82;;;6.00;;
44358;SDS011;30077;52.474;13.326;2023-07-08T05:32:15;5.85;;;5.00;;
44358;SDS011;30077;52.474;13.326;2023-07-08T05:37:16;6.33;;;5.40;;
44358;SDS011;30077;52.474;13.326;2023-07-08T05:42:21;5.78;;;4.97;;
44358;SDS011;30077;52.474;13.326;2023-07-08T05:47:22;6.97;;;4.93;;
44358;SDS011;30077;52.474;13.326;2023-07-08T05:52:23;7.20;;;5.50;;
44358;SDS011;30077;52.474;13.326;2023-07-08T05:57:24;13.27;;;5.97;;
44358;SDS011;30077;52.474;13.326;2023-07-08T06:02:25;8.02;;;5.28;;
44358;SDS011;30077;52.474;13.326;2023-07-08T06:07:27;10.27;;;5.28;;
44358;SDS011;30077;52.474;13.326;2023-07-08T06:12:29;6.07;;;5.23;;
44358;SDS011;30077;52.474;13.326;2023-07-08T06:17:30;6.97;;;5.47;;
44358;SDS011;30077;52.474;13.326;2023-07-08T06:22:31;5.95;;;4.75;;
44358;SDS011;30077;52.474;13.326;2023-07-08T06:27:32;7.25;;;5.55;;
44358;SDS011;30077;52.474;13.326;2023-07-08T06:32:33;5.93;;;5.10;;
44358;SDS011;30077;52.474;13.326;2023-07-08T06:37:33;8.60;;;5.30;;
44358;SDS011;30077;52.474;13.326;2023-07-08T06:42:34;6.60;;;5.70;;
44358;SDS011;30077;52.474;13.326;2023-07-08T06:47:35;11.25;;;5.80;;
44358;SDS011;30077;52.474;13.326;2023-07-08T06:52:36;8.98;;;5.88;;
44358;SDS011;30077;52.474;13.326;2023-07-08T06:57:37;8.85;;;5.47;;
44358;SDS011;30077;52.474;13.326;2023-07-08T07:02:40;6.30;;;4.97;;
44358;SDS011;30077;52.474;13.326;2023-07-08T07:07:41;6.05;;;5.30;;
44358;SDS011;30077;52.474;13.326;2023-07-08T07:12:42;5.57;;;4.72;;
44358;SDS011;30077;52.474;13.326;2023-07-08T07:17:43;9.13;;;5.50;;
44358;SDS011;30077;52.474;13.326;2023-07-08T07:22:43;7.20;;;5.60;;
44358;SDS011;30077;52.474;13.326;2023-07-08T07:27:44;8.40;;;5.03;;
44358;SDS011;30077;52.474;13.326;2023-07-08T07:32:45;9.10;;;4.95;;
44358;SDS011;30077;52.474;13.326;2023-07-08T07:37:45;8.07;;;5.60;;
44358;SDS011;30077;52.474;13.326;2023-07-08T07:42:46;7.38;;;4.95;;
44358;SDS011;30077;52.474;13.326;2023-07-08T07:47:47;5.95;;;5.07;;
44358;SDS011;30077;52.474;13.326;2023-07-08T07:52:47;9.93;;;4.97;;
44358;SDS011;30077;52.474;13.326;2023-07-08T07:57:48;6.60;;;5.30;;
44358;SDS011;30077;52.474;13.326;2023-07-08T08:02:49;10.05;;;5.22;;
44358;SDS011;30077;52.474;13.326;2023-07-08T08:07:49;6.63;;;4.80;;
44358;SDS011;30077;52.474;13.326;2023-07-08T08:12:51;5.30;;;4.63;;
44358;SDS011;30077;52.474;13.326;2023-07-08T08:17:52;7.57;;;4.63;;
44358;SDS011;30077;52.474;13.326;2023-07-08T08:22:56;12.43;;;10.57;;
44358;SDS011;30077;52.474;13.326;2023-07-08T08:27:56;7.70;;;4.53;;
44358;SDS011;30077;52.474;13.326;2023-07-08T08:32:57;6.88;;;4.88;;
44358;SDS011;30077;52.474;13.326;2023-07-08T08:37:58;6.70;;;5.00;;
44358;SDS011;30077;52.474;13.326;2023-07-08T08:48:23;10.07;;;5.40;;
44358;SDS011;30077;52.474;13.326;2023-07-08T08:53:26;4.68;;;4.28;;
44358;SDS011;30077;52.474;13.326;2023-07-08T08:58:39;6.10;;;4.93;;
44358;SDS011;30077;52.474;13.326;2023-07-08T09:04:00;11.32;;;5.03;;
44358;SDS011;30077;52.474;13.326;2023-07-08T09:09:15;4.90;;;3.90;;
44358;SDS011;30077;52.474;13.326;2023-07-08T09:14:39;6.93;;;4.65;;
44358;SDS011;30077;52.474;13.326;2023-07-08T09:19:47;5.10;;;4.00;;
44358;SDS011;30077;52.474;13.326;2023-07-08T09:25:12;7.63;;;4.80;;
44358;SDS011;30077;52.474;13.326;2023-07-08T09:30:34;5.25;;;4.47;;
44358;SDS011;30077;52.474;13.326;2023-07-08T09:35:46;4.53;;;4.10;;
44358;SDS011;30077;52.474;13.326;2023-07-08T09:40:49;7.70;;;4.13;;
44358;SDS011;30077;52.474;13.326;2023-07-08T09:45:59;9.88;;;3.97;;
44358;SDS011;30077;52.474;13.326;2023-07-08T09:51:02;6.40;;;4.03;;
44358;SDS011;30077;52.474;13.326;2023-07-08T09:56:04;4.55;;;3.80;;
44358;SDS011;30077;52.474;13.326;2023-07-08T10:01:11;4.53;;;4.10;;
44358;SDS011;30077;52.474;13.326;2023-07-08T10:06:22;6.65;;;4.50;;
44358;SDS011;30077;52.474;13.326;2023-07-08T10:11:29;4.60;;;4.10;;
44358;SDS011;30077;52.474;13.326;2023-07-08T10:16:33;5.47;;;4.15;;
44358;SDS011;30077;52.474;13.326;2023-07-08T10:22:40;4.90;;;4.00;;
44358;SDS011;30077;52.474;13.326;2023-07-08T10:33:06;4.53;;;4.13;;
44358;SDS011;30077;52.474;13.326;2023-07-08T10:38:36;6.93;;;3.67;;
44358;SDS011;30077;52.474;13.326;2023-07-08T10:44:05;5.95;;;4.03;;
44358;SDS011;30077;52.474;13.326;2023-07-08T10:54:33;5.70;;;3.70;;
44358;SDS011;30077;52.474;13.326;2023-07-08T11:05:45;6.28;;;4.25;;
44358;SDS011;30077;52.474;13.326;2023-07-08T11:11:01;4.32;;;3.78;;
44358;SDS011;30077;52.474;13.326;2023-07-08T11:16:13;4.75;;;3.70;;
44358;SDS011;30077;52.474;13.326;2023-07-08T11:21:30;5.68;;;4.18;;
44358;SDS011;30077;52.474;13.326;2023-07-08T11:26:42;4.55;;;3.60;;
44358;SDS011;30077;52.474;13.326;2023-07-08T11:31:50;6.22;;;4.20;;
44358;SDS011;30077;52.474;13.326;2023-07-08T11:36:54;5.55;;;3.42;;
44358;SDS011;30077;52.474;13.326;2023-07-08T11:42:03;6.53;;;4.00;;
44358;SDS011;30077;52.474;13.326;2023-07-08T11:47:24;4.68;;;4.13;;
44358;SDS011;30077;52.474;13.326;2023-07-08T11:52:39;6.85;;;4.28;;
44358;SDS011;30077;52.474;13.326;2023-07-08T11:58:06;6.70;;;4.03;;
44358;SDS011;30077;52.474;13.326;2023-07-08T12:03:20;7.70;;;4.05;;
44358;SDS011;30077;52.474;13.326;2023-07-08T12:08:22;8.07;;;4.93;;
44358;SDS011;30077;52.474;13.326;2023-07-08T12:13:37;8.70;;;3.90;;
44358;SDS011;30077;52.474;13.326;2023-07-08T12:18:38;5.70;;;3.90;;
44358;SDS011;30077;52.474;13.326;2023-07-08T12:23:46;5.18;;;4.00;;
44358;SDS011;30077;52.474;13.326;2023-07-08T12:28:47;9.90;;;4.43;;
44358;SDS011;30077;52.474;13.326;2023-07-08T12:33:48;7.85;;;4.60;;
44358;SDS011;30077;52.474;13.326;2023-07-08T12:38:50;5.65;;;3.92;;
44358;SDS011;30077;52.474;13.326;2023-07-08T12:43:52;6.88;;;4.50;;
44358;SDS011;30077;52.474;13.326;2023-07-08T12:48:53;8.00;;;4.80;;
44358;SDS011;30077;52.474;13.326;2023-07-08T12:53:56;7.05;;;4.28;;
44358;SDS011;30077;52.474;13.326;2023-07-08T12:58:57;7.50;;;4.78;;
44358;SDS011;30077;52.474;13.326;2023-07-08T13:04:00;7.63;;;5.10;;
44358;SDS011;30077;52.474;13.326;2023-07-08T13:09:19;8.82;;;4.03;;
44358;SDS011;30077;52.474;13.326;2023-07-08T13:14:37;8.75;;;4.28;;
44358;SDS011;30077;52.474;13.326;2023-07-08T13:19:43;5.05;;;4.40;;
44358;SDS011;30077;52.474;13.326;2023-07-08T13:24:45;4.60;;;4.20;;
44358;SDS011;30077;52.474;13.326;2023-07-08T13:29:46;6.70;;;5.00;;
44358;SDS011;30077;52.474;13.326;2023-07-08T13:34:49;10.10;;;4.75;;
44358;SDS011;30077;52.474;13.326;2023-07-08T13:39:51;5.60;;;4.15;;
44358;SDS011;30077;52.474;13.326;2023-07-08T13:44:54;4.30;;;3.83;;
44358;SDS011;30077;52.474;13.326;2023-07-08T13:49:59;7.85;;;4.07;;
44358;SDS011;30077;52.474;13.326;2023-07-08T13:55:17;7.35;;;4.70;;
44358;SDS011;30077;52.474;13.326;2023-07-08T14:00:18;7.93;;;4.18;;
44358;SDS011;30077;52.474;13.326;2023-07-08T14:05:19;6.95;;;4.15;;
44358;SDS011;30077;52.474;13.326;2023-07-08T14:10:21;4.88;;;4.35;;
44358;SDS011;30077;52.474;13.326;2023-07-08T14:15:22;6.45;;;3.92;;
44358;SDS011;30077;52.474;13.326;2023-07-08T14:20:24;6.35;;;4.45;;
44358;SDS011;30077;52.474;13.326;2023-07-08T14:25:27;5.57;;;4.30;;
44358;SDS011;30077;52.474;13.326;2023-07-08T14:30:28;8.93;;;4.40;;
44358;SDS011;30077;52.474;13.326;2023-07-08T14:35:29;7.72;;;4.50;;
44358;SDS011;30077;52.474;13.326;2023-07-08T14:40:36;6.75;;;4.43;;
44358;SDS011;30077;52.474;13.326;2023-07-08T14:45:40;5.80;;;4.32;;
44358;SDS011;30077;52.474;13.326;2023-07-08T14:50:47;7.72;;;4.70;;
44358;SDS011;30077;52.474;13.326;2023-07-08T14:55:54;7.10;;;4.78;;
44358;SDS011;30077;52.474;13.326;2023-07-08T15:00:56;7.28;;;4.43;;
44358;SDS011;30077;52.474;13.326;2023-07-08T15:05:59;6.70;;;4.50;;
44358;SDS011;30077;52.474;13.326;2023-07-08T15:11:01;6.80;;;4.32;;
44358;SDS011;30077;52.474;13.326;2023-07-08T15:16:05;5.10;;;4.60;;
44358;SDS011;30077;52.474;13.326;2023-07-08T15:21:12;8.90;;;4.40;;
44358;SDS011;30077;52.474;13.326;2023-07-08T15:26:14;4.55;;;4.15;;
44358;SDS011;30077;52.474;13.326;2023-07-08T15:31:16;5.75;;;4.72;;
44358;SDS011;30077;52.474;13.326;2023-07-08T15:36:24;5.25;;;4.28;;
44358;SDS011;30077;52.474;13.326;2023-07-08T15:41:25;4.78;;;4.30;;
44358;SDS011;30077;52.474;13.326;2023-07-08T15:51:41;8.25;;;4.50;;
44358;SDS011;30077;52.474;13.326;2023-07-08T15:56:42;4.90;;;4.40;;
44358;SDS011;30077;52.474;13.326;2023-07-08T16:01:42;5.67;;;4.37;;
44358;SDS011;30077;52.474;13.326;2023-07-08T16:06:43;5.83;;;4.67;;
44358;SDS011;30077;52.474;13.326;2023-07-08T16:11:44;5.30;;;4.37;;
44358;SDS011;30077;52.474;13.326;2023-07-08T16:16:47;6.88;;;4.75;;
44358;SDS011;30077;52.474;13.326;2023-07-08T16:26:49;4.60;;;4.17;;
44358;SDS011;30077;52.474;13.326;2023-07-08T16:31:50;4.97;;;4.13;;
44358;SDS011;30077;52.474;13.326;2023-07-08T16:36:52;5.47;;;4.05;;
44358;SDS011;30077;52.474;13.326;2023-07-08T16:41:52;4.77;;;4.30;;
44358;SDS011;30077;52.474;13.326;2023-07-08T16:46:53;4.90;;;3.97;;
44358;SDS011;30077;52.474;13.326;2023-07-08T16:56:55;5.63;;;4.00;;
44358;SDS011;30077;52.474;13.326;2023-07-08T17:06:56;4.33;;;3.90;;
44358;SDS011;30077;52.474;13.326;2023-07-08T17:16:57;5.07;;;3.83;;
44358;SDS011;30077;52.474;13.326;2023-07-08T17:21:58;4.57;;;4.10;;
44358;SDS011;30077;52.474;13.326;2023-07-08T17:26:59;4.90;;;4.20;;
44358;SDS011;30077;52.474;13.326;2023-07-08T17:31:59;4.17;;;3.53;;
44358;SDS011;30077;52.474;13.326;2023-07-08T17:37:02;4.75;;;4.25;;
44358;SDS011;30077;52.474;13.326;2023-07-08T17:42:03;6.07;;;4.43;;
44358;SDS011;30077;52.474;13.326;2023-07-08T17:47:04;8.93;;;4.57;;
44358;SDS011;30077;52.474;13.326;2023-07-08T17:52:09;5.75;;;4.15;;
44358;SDS011;30077;52.474;13.326;2023-07-08T17:57:10;10.35;;;5.18;;
44358;SDS011;30077;52.474;13.326;2023-07-08T18:02:16;5.80;;;4.60;;
44358;SDS011;30077;52.474;13.326;2023-07-08T18:07:17;5.82;;;4.38;;
44358;SDS011;30077;52.474;13.326;2023-07-08T18:12:17;7.85;;;5.30;;
44358;SDS011;30077;52.474;13.326;2023-07-08T18:17:18;9.13;;;5.18;;
44358;SDS011;30077;52.474;13.326;2023-07-08T18:22:19;11.15;;;6.65;;
44358;SDS011;30077;52.474;13.326;2023-07-08T18:27:19;6.68;;;4.72;;
44358;SDS011;30077;52.474;13.326;2023-07-08T18:32:20;6.50;;;4.78;;
44358;SDS011;30077;52.474;13.326;2023-07-08T18:37:21;6.30;;;4.88;;
44358;SDS011;30077;52.474;13.326;2023-07-08T18:42:22;8.38;;;5.65;;
44358;SDS011;30077;52.474;13.326;2023-07-08T18:47:23;6.80;;;5.28;;
44358;SDS011;30077;52.474;13.326;2023-07-08T18:57:26;6.15;;;5.47;;
44358;SDS011;30077;52.474;13.326;2023-07-08T19:02:30;8.80;;;5.78;;
44358;SDS011;30077;52.474;13.326;2023-07-08T19:07:34;7.38;;;5.78;;
44358;SDS011;30077;52.474;13.326;2023-07-08T19:12:35;7.75;;;5.90;;
44358;SDS011;30077;52.474;13.326;2023-07-08T19:17:36;13.88;;;6.45;;
44358;SDS011;30077;52.474;13.326;2023-07-08T19:22:36;8.48;;;5.10;;
44358;SDS011;30077;52.474;13.326;2023-07-08T19:27:37;12.27;;;5.10;;
44358;SDS011;30077;52.474;13.326;2023-07-08T19:32:39;11.80;;;4.85;;
44358;SDS011;30077;52.474;13.326;2023-07-08T19:37:48;9.13;;;5.18;;
44358;SDS011;30077;52.474;13.326;2023-07-08T19:42:50;9.80;;;4.80;;
44358;SDS011;30077;52.474;13.326;2023-07-08T19:47:54;6.53;;;4.05;;
44358;SDS011;30077;52.474;13.326;2023-07-08T19:52:57;7.40;;;3.80;;
44358;SDS011;30077;52.474;13.326;2023-07-08T19:57:59;4.75;;;3.63;;
44358;SDS011;30077;52.474;13.326;2023-07-08T20:03:03;4.88;;;3.97;;
44358;SDS011;30077;52.474;13.326;2023-07-08T20:13:30;6.28;;;4.35;;
44358;SDS011;30077;52.474;13.326;2023-07-08T20:18:33;7.30;;;4.60;;
44358;SDS011;30077;52.474;13.326;2023-07-08T20:23:34;8.32;;;4.10;;
44358;SDS011;30077;52.474;13.326;2023-07-08T20:28:36;5.65;;;3.90;;
44358;SDS011;30077;52.474;13.326;2023-07-08T20:33:37;6.78;;;4.18;;
44358;SDS011;30077;52.474;13.326;2023-07-08T20:38:38;5.00;;;3.80;;
44358;SDS011;30077;52.474;13.326;2023-07-08T20:43:39;10.30;;;3.95;;
44358;SDS011;30077;52.474;13.326;2023-07-08T20:48:39;6.88;;;3.72;;
44358;SDS011;30077;52.474;13.326;2023-07-08T20:53:40;4.75;;;3.58;;
44358;SDS011;30077;52.474;13.326;2023-07-08T20:58:41;7.13;;;4.13;;
44358;SDS011;30077;52.474;13.326;2023-07-08T21:03:42;6.70;;;3.70;;
44358;SDS011;30077;52.474;13.326;2023-07-08T21:08:46;6.05;;;3.90;;
44358;SDS011;30077;52.474;13.326;2023-07-08T21:13:46;5.60;;;3.67;;
44358;SDS011;30077;52.474;13.326;2023-07-08T21:18:48;5.78;;;3.78;;
44358;SDS011;30077;52.474;13.326;2023-07-08T21:23:51;7.25;;;4.50;;
44358;SDS011;30077;52.474;13.326;2023-07-08T21:28:55;6.63;;;4.22;;
44358;SDS011;30077;52.474;13.326;2023-07-08T21:33:59;6.65;;;4.55;;
44358;SDS011;30077;52.474;13.326;2023-07-08T21:39:01;9.40;;;5.47;;
44358;SDS011;30077;52.474;13.326;2023-07-08T21:44:11;7.00;;;4.25;;
44358;SDS011;30077;52.474;13.326;2023-07-08T21:49:17;6.55;;;4.60;;
44358;SDS011;30077;52.474;13.326;2023-07-08T21:54:18;11.50;;;4.80;;
44358;SDS011;30077;52.474;13.326;2023-07-08T21:59:19;7.30;;;4.15;;
44358;SDS011;30077;52.474;13.326;2023-07-08T22:04:23;8.23;;;4.35;;
44358;SDS011;30077;52.474;13.326;2023-07-08T22:09:24;7.07;;;3.97;;
44358;SDS011;30077;52.474;13.326;2023-07-08T22:14:25;6.45;;;4.03;;
44358;SDS011;30077;52.474;13.326;2023-07-08T22:19:26;5.82;;;3.75;;
44358;SDS011;30077;52.474;13.326;2023-07-08T22:24:26;6.45;;;4.05;;
44358;SDS011;30077;52.474;13.326;2023-07-08T22:29:27;5.50;;;4.07;;
44358;SDS011;30077;52.474;13.326;2023-07-08T22:34:28;7.65;;;4.20;;
44358;SDS011;30077;52.474;13.326;2023-07-08T22:39:28;7.88;;;4.18;;
44358;SDS011;30077;52.474;13.326;2023-07-08T22:44:29;5.10;;;3.85;;
44358;SDS011;30077;52.474;13.326;2023-07-08T22:49:30;5.93;;;4.63;;
44358;SDS011;30077;52.474;13.326;2023-07-08T22:54:31;6.70;;;4.25;;
44358;SDS011;30077;52.474;13.326;2023-07-08T23:04:34;6.07;;;4.00;;
44358;SDS011;30077;52.474;13.326;2023-07-08T23:09:35;7.32;;;3.97;;
44358;SDS011;30077;52.474;13.326;2023-07-08T23:14:36;8.10;;;4.15;;
44358;SDS011;30077;52.474;13.326;2023-07-08T23:19:36;8.10;;;4.15;;
44358;SDS011;30077;52.474;13.326;2023-07-08T23:24:38;5.00;;;4.03;;
44358;SDS011;30077;52.474;13.326;2023-07-08T23:29:38;6.72;;;4.35;;
44358;SDS011;30077;52.474;13.326;2023-07-08T23:34:39;7.95;;;4.35;;
44358;SDS011;30077;52.474;13.326;2023-07-08T23:39:40;5.90;;;3.92;;
44358;SDS011;30077;52.474;13.326;2023-07-08T23:44:40;9.43;;;3.70;;
44358;SDS011;30077;52.474;13.326;2023-07-08T23:49:41;6.18;;;4.10;;
44358;SDS011;30077;52.474;13.326;2023-07-08T23:54:42;6.63;;;4.45;;
44358;SDS011;30077;52.474;13.326;2023-07-08T23:59:44;6.05;;;4.10;;
